Terminal Aerodrome Forecast
Issued by NWS

Home | Current Version | Previous Version | Text Only | Print | Product List | Glossary On
Versions: 1 2 3 4 5 6 7 8 9 10 11 12 13 14 15 16 17 18 19 20
000
FTUS46 KPDT 230534
TAFBDN
TAF
KBDN 230534Z 2306/2406 VRB03KT P6SM FEW050 BKN090
     FM231200 VRB03KT P6SM FEW060 BKN150
     FM231900 34008KT P6SM FEW060 BKN120
     FM240300 VRB03KT P6SM SCT120=

USA.gov is the U.S. government's official web portal to all federal, state and local government web resources and services.